sensor_id;sensor_type;location;lat;lon;timestamp;P1;durP1;ratioP1;P2;durP2;ratioP2
3841;SDS011;1936;47.074;15.336;2022-09-09T00:00:05;2.67;;;2.27;;
3841;SDS011;1936;47.074;15.336;2022-09-09T00:02:10;4.60;;;2.80;;
3841;SDS011;1936;47.074;15.336;2022-09-09T00:04:23;3.20;;;2.23;;
3841;SDS011;1936;47.074;15.336;2022-09-09T00:06:30;3.13;;;2.50;;
3841;SDS011;1936;47.074;15.336;2022-09-09T00:08:38;2.30;;;2.03;;
3841;SDS011;1936;47.074;15.336;2022-09-09T00:10:49;2.20;;;2.00;;
3841;SDS011;1936;47.074;15.336;2022-09-09T00:13:01;5.20;;;2.60;;
3841;SDS011;1936;47.074;15.336;2022-09-09T00:15:12;6.93;;;2.73;;
3841;SDS011;1936;47.074;15.336;2022-09-09T00:17:24;11.33;;;2.90;;
3841;SDS011;1936;47.074;15.336;2022-09-09T00:19:39;2.60;;;2.40;;
3841;SDS011;1936;47.074;15.336;2022-09-09T00:21:54;4.30;;;2.93;;
3841;SDS011;1936;47.074;15.336;2022-09-09T00:24:08;3.90;;;2.40;;
3841;SDS011;1936;47.074;15.336;2022-09-09T00:26:16;2.47;;;2.27;;
3841;SDS011;1936;47.074;15.336;2022-09-09T00:28:25;8.47;;;3.30;;
3841;SDS011;1936;47.074;15.336;2022-09-09T00:30:34;6.70;;;2.93;;
3841;SDS011;1936;47.074;15.336;2022-09-09T00:32:39;2.97;;;2.63;;
3841;SDS011;1936;47.074;15.336;2022-09-09T00:34:48;4.50;;;2.40;;
3841;SDS011;1936;47.074;15.336;2022-09-09T00:36:54;2.97;;;2.20;;
3841;SDS011;1936;47.074;15.336;2022-09-09T00:39:00;9.73;;;3.30;;
3841;SDS011;1936;47.074;15.336;2022-09-09T00:41:05;3.53;;;2.60;;
3841;SDS011;1936;47.074;15.336;2022-09-09T00:43:25;4.53;;;3.13;;
3841;SDS011;1936;47.074;15.336;2022-09-09T00:45:42;5.33;;;2.80;;
3841;SDS011;1936;47.074;15.336;2022-09-09T00:48:04;6.70;;;3.90;;
3841;SDS011;1936;47.074;15.336;2022-09-09T00:50:29;9.20;;;3.23;;
3841;SDS011;1936;47.074;15.336;2022-09-09T00:52:47;4.40;;;4.00;;
3841;SDS011;1936;47.074;15.336;2022-09-09T00:54:57;10.97;;;3.73;;
3841;SDS011;1936;47.074;15.336;2022-09-09T00:57:13;3.37;;;3.07;;
3841;SDS011;1936;47.074;15.336;2022-09-09T00:59:32;3.67;;;2.90;;
3841;SDS011;1936;47.074;15.336;2022-09-09T01:01:41;6.93;;;3.13;;
3841;SDS011;1936;47.074;15.336;2022-09-09T01:03:46;4.70;;;2.83;;
3841;SDS011;1936;47.074;15.336;2022-09-09T01:06:01;4.00;;;3.30;;
3841;SDS011;1936;47.074;15.336;2022-09-09T01:08:11;4.13;;;3.73;;
3841;SDS011;1936;47.074;15.336;2022-09-09T01:10:23;4.37;;;3.77;;
3841;SDS011;1936;47.074;15.336;2022-09-09T01:12:34;4.83;;;3.80;;
3841;SDS011;1936;47.074;15.336;2022-09-09T01:14:43;3.50;;;3.20;;
3841;SDS011;1936;47.074;15.336;2022-09-09T01:16:50;3.87;;;3.37;;
3841;SDS011;1936;47.074;15.336;2022-09-09T01:18:57;3.87;;;3.47;;
3841;SDS011;1936;47.074;15.336;2022-09-09T01:21:04;10.53;;;3.30;;
3841;SDS011;1936;47.074;15.336;2022-09-09T01:23:22;3.67;;;3.37;;
3841;SDS011;1936;47.074;15.336;2022-09-09T01:28:21;5.80;;;3.10;;
3841;SDS011;1936;47.074;15.336;2022-09-09T01:30:29;3.10;;;2.80;;
3841;SDS011;1936;47.074;15.336;2022-09-09T01:32:38;3.00;;;2.70;;
3841;SDS011;1936;47.074;15.336;2022-09-09T01:34:44;3.93;;;3.63;;
3841;SDS011;1936;47.074;15.336;2022-09-09T01:36:49;3.97;;;3.60;;
3841;SDS011;1936;47.074;15.336;2022-09-09T01:38:56;5.03;;;3.53;;
3841;SDS011;1936;47.074;15.336;2022-09-09T01:40:59;7.07;;;3.47;;
3841;SDS011;1936;47.074;15.336;2022-09-09T01:43:04;2.87;;;2.60;;
3841;SDS011;1936;47.074;15.336;2022-09-09T01:45:09;11.90;;;4.07;;
3841;SDS011;1936;47.074;15.336;2022-09-09T01:47:13;4.10;;;3.70;;
3841;SDS011;1936;47.074;15.336;2022-09-09T01:49:17;3.80;;;2.97;;
3841;SDS011;1936;47.074;15.336;2022-09-09T01:51:21;3.77;;;3.47;;
3841;SDS011;1936;47.074;15.336;2022-09-09T01:53:25;3.93;;;3.43;;
3841;SDS011;1936;47.074;15.336;2022-09-09T01:55:30;6.10;;;4.17;;
3841;SDS011;1936;47.074;15.336;2022-09-09T01:57:36;5.13;;;3.67;;
3841;SDS011;1936;47.074;15.336;2022-09-09T01:59:50;4.87;;;3.70;;
3841;SDS011;1936;47.074;15.336;2022-09-09T02:02:06;5.90;;;4.57;;
3841;SDS011;1936;47.074;15.336;2022-09-09T02:04:22;5.97;;;4.23;;
3841;SDS011;1936;47.074;15.336;2022-09-09T02:06:34;3.53;;;3.23;;
3841;SDS011;1936;47.074;15.336;2022-09-09T02:08:41;4.37;;;3.30;;
3841;SDS011;1936;47.074;15.336;2022-09-09T02:10:49;4.00;;;3.40;;
3841;SDS011;1936;47.074;15.336;2022-09-09T02:12:59;6.93;;;3.67;;
3841;SDS011;1936;47.074;15.336;2022-09-09T02:15:11;3.73;;;3.43;;
3841;SDS011;1936;47.074;15.336;2022-09-09T02:17:21;7.73;;;3.47;;
3841;SDS011;1936;47.074;15.336;2022-09-09T02:19:29;3.87;;;3.47;;
3841;SDS011;1936;47.074;15.336;2022-09-09T02:21:37;3.40;;;3.10;;
3841;SDS011;1936;47.074;15.336;2022-09-09T02:23:40;5.30;;;3.20;;
3841;SDS011;1936;47.074;15.336;2022-09-09T02:25:46;3.33;;;3.03;;
3841;SDS011;1936;47.074;15.336;2022-09-09T02:27:53;8.73;;;3.23;;
3841;SDS011;1936;47.074;15.336;2022-09-09T02:29:56;7.33;;;3.70;;
3841;SDS011;1936;47.074;15.336;2022-09-09T02:32:06;4.30;;;3.17;;
3841;SDS011;1936;47.074;15.336;2022-09-09T02:34:14;3.60;;;3.30;;
3841;SDS011;1936;47.074;15.336;2022-09-09T02:36:21;3.47;;;3.20;;
3841;SDS011;1936;47.074;15.336;2022-09-09T02:38:26;4.90;;;3.10;;
3841;SDS011;1936;47.074;15.336;2022-09-09T02:40:32;4.10;;;3.03;;
3841;SDS011;1936;47.074;15.336;2022-09-09T02:42:38;3.37;;;3.00;;
3841;SDS011;1936;47.074;15.336;2022-09-09T02:44:42;10.33;;;4.50;;
3841;SDS011;1936;47.074;15.336;2022-09-09T02:46:58;2.93;;;2.73;;
3841;SDS011;1936;47.074;15.336;2022-09-09T02:49:16;3.87;;;3.57;;
3841;SDS011;1936;47.074;15.336;2022-09-09T02:51:27;6.83;;;3.50;;
3841;SDS011;1936;47.074;15.336;2022-09-09T02:53:40;4.10;;;3.37;;
3841;SDS011;1936;47.074;15.336;2022-09-09T02:55:51;4.60;;;3.60;;
3841;SDS011;1936;47.074;15.336;2022-09-09T02:57:56;3.70;;;3.40;;
3841;SDS011;1936;47.074;15.336;2022-09-09T03:00:03;4.80;;;3.30;;
3841;SDS011;1936;47.074;15.336;2022-09-09T03:02:09;4.33;;;3.73;;
3841;SDS011;1936;47.074;15.336;2022-09-09T03:04:14;4.70;;;3.60;;
3841;SDS011;1936;47.074;15.336;2022-09-09T03:06:18;6.63;;;3.90;;
3841;SDS011;1936;47.074;15.336;2022-09-09T03:08:21;5.90;;;3.83;;
3841;SDS011;1936;47.074;15.336;2022-09-09T03:10:25;4.43;;;3.80;;
3841;SDS011;1936;47.074;15.336;2022-09-09T03:12:28;5.93;;;3.70;;
3841;SDS011;1936;47.074;15.336;2022-09-09T03:14:31;4.20;;;3.60;;
3841;SDS011;1936;47.074;15.336;2022-09-09T03:16:35;3.70;;;3.40;;
3841;SDS011;1936;47.074;15.336;2022-09-09T03:18:39;3.30;;;2.53;;
3841;SDS011;1936;47.074;15.336;2022-09-09T03:20:43;4.30;;;3.90;;
3841;SDS011;1936;47.074;15.336;2022-09-09T03:22:49;4.93;;;3.53;;
3841;SDS011;1936;47.074;15.336;2022-09-09T03:24:53;4.70;;;3.50;;
3841;SDS011;1936;47.074;15.336;2022-09-09T03:26:56;4.83;;;3.67;;
3841;SDS011;1936;47.074;15.336;2022-09-09T03:28:59;3.63;;;3.33;;
3841;SDS011;1936;47.074;15.336;2022-09-09T03:31:03;4.40;;;3.80;;
3841;SDS011;1936;47.074;15.336;2022-09-09T03:33:11;5.00;;;3.63;;
3841;SDS011;1936;47.074;15.336;2022-09-09T03:35:18;6.90;;;3.30;;
3841;SDS011;1936;47.074;15.336;2022-09-09T03:37:21;4.53;;;3.43;;
3841;SDS011;1936;47.074;15.336;2022-09-09T03:39:25;5.67;;;3.33;;
3841;SDS011;1936;47.074;15.336;2022-09-09T03:41:28;5.40;;;3.40;;
3841;SDS011;1936;47.074;15.336;2022-09-09T03:43:33;7.83;;;3.93;;
3841;SDS011;1936;47.074;15.336;2022-09-09T03:45:36;7.50;;;3.60;;
3841;SDS011;1936;47.074;15.336;2022-09-09T03:47:40;4.80;;;3.30;;
3841;SDS011;1936;47.074;15.336;2022-09-09T03:49:43;6.57;;;3.90;;
3841;SDS011;1936;47.074;15.336;2022-09-09T03:51:48;3.53;;;3.10;;
3841;SDS011;1936;47.074;15.336;2022-09-09T03:53:51;4.37;;;3.77;;
3841;SDS011;1936;47.074;15.336;2022-09-09T03:55:59;4.97;;;3.90;;
3841;SDS011;1936;47.074;15.336;2022-09-09T03:58:03;5.50;;;3.57;;
3841;SDS011;1936;47.074;15.336;2022-09-09T04:00:07;4.00;;;3.70;;
3841;SDS011;1936;47.074;15.336;2022-09-09T04:02:11;4.17;;;3.77;;
3841;SDS011;1936;47.074;15.336;2022-09-09T04:04:14;4.77;;;3.80;;
3841;SDS011;1936;47.074;15.336;2022-09-09T04:06:17;3.80;;;3.50;;
3841;SDS011;1936;47.074;15.336;2022-09-09T04:08:24;5.20;;;3.33;;
3841;SDS011;1936;47.074;15.336;2022-09-09T04:10:28;7.27;;;3.90;;
3841;SDS011;1936;47.074;15.336;2022-09-09T04:12:31;3.57;;;3.27;;
3841;SDS011;1936;47.074;15.336;2022-09-09T04:14:35;4.30;;;3.90;;
3841;SDS011;1936;47.074;15.336;2022-09-09T04:16:38;10.90;;;3.63;;
3841;SDS011;1936;47.074;15.336;2022-09-09T04:18:46;4.97;;;4.53;;
3841;SDS011;1936;47.074;15.336;2022-09-09T04:20:50;7.07;;;4.00;;
3841;SDS011;1936;47.074;15.336;2022-09-09T04:22:54;5.40;;;4.40;;
3841;SDS011;1936;47.074;15.336;2022-09-09T04:24:59;4.90;;;3.90;;
3841;SDS011;1936;47.074;15.336;2022-09-09T04:27:03;4.40;;;4.00;;
3841;SDS011;1936;47.074;15.336;2022-09-09T04:29:06;3.97;;;3.57;;
3841;SDS011;1936;47.074;15.336;2022-09-09T04:31:10;4.50;;;3.87;;
3841;SDS011;1936;47.074;15.336;2022-09-09T04:33:19;6.43;;;3.67;;
3841;SDS011;1936;47.074;15.336;2022-09-09T04:35:23;5.07;;;3.50;;
3841;SDS011;1936;47.074;15.336;2022-09-09T04:37:28;3.60;;;3.30;;
3841;SDS011;1936;47.074;15.336;2022-09-09T04:39:31;3.73;;;3.43;;
3841;SDS011;1936;47.074;15.336;2022-09-09T04:41:36;4.00;;;3.67;;
3841;SDS011;1936;47.074;15.336;2022-09-09T04:43:40;3.70;;;3.40;;
3841;SDS011;1936;47.074;15.336;2022-09-09T04:45:43;4.13;;;3.57;;
3841;SDS011;1936;47.074;15.336;2022-09-09T04:47:49;7.80;;;3.87;;
3841;SDS011;1936;47.074;15.336;2022-09-09T04:49:52;3.33;;;3.03;;
3841;SDS011;1936;47.074;15.336;2022-09-09T04:51:56;6.17;;;3.27;;
3841;SDS011;1936;47.074;15.336;2022-09-09T04:53:59;5.47;;;4.03;;
3841;SDS011;1936;47.074;15.336;2022-09-09T04:56:03;5.37;;;4.20;;
3841;SDS011;1936;47.074;15.336;2022-09-09T04:58:09;6.90;;;3.77;;
3841;SDS011;1936;47.074;15.336;2022-09-09T05:00:13;3.63;;;3.33;;
3841;SDS011;1936;47.074;15.336;2022-09-09T05:02:18;3.70;;;3.40;;
3841;SDS011;1936;47.074;15.336;2022-09-09T05:04:21;6.43;;;3.67;;
3841;SDS011;1936;47.074;15.336;2022-09-09T05:06:25;4.30;;;3.40;;
3841;SDS011;1936;47.074;15.336;2022-09-09T05:08:28;4.60;;;3.70;;
3841;SDS011;1936;47.074;15.336;2022-09-09T05:10:32;3.70;;;3.40;;
3841;SDS011;1936;47.074;15.336;2022-09-09T05:12:35;3.80;;;3.47;;
3841;SDS011;1936;47.074;15.336;2022-09-09T05:14:40;4.83;;;3.67;;
3841;SDS011;1936;47.074;15.336;2022-09-09T05:16:44;5.67;;;3.30;;
3841;SDS011;1936;47.074;15.336;2022-09-09T05:18:48;3.27;;;3.00;;
3841;SDS011;1936;47.074;15.336;2022-09-09T05:20:56;3.40;;;3.10;;
3841;SDS011;1936;47.074;15.336;2022-09-09T05:23:01;3.50;;;2.97;;
3841;SDS011;1936;47.074;15.336;2022-09-09T05:25:05;3.53;;;3.33;;
3841;SDS011;1936;47.074;15.336;2022-09-09T05:27:09;4.83;;;3.77;;
3841;SDS011;1936;47.074;15.336;2022-09-09T05:29:13;6.30;;;3.27;;
3841;SDS011;1936;47.074;15.336;2022-09-09T05:31:19;3.70;;;3.40;;
3841;SDS011;1936;47.074;15.336;2022-09-09T05:33:23;3.90;;;3.03;;
3841;SDS011;1936;47.074;15.336;2022-09-09T05:35:28;2.97;;;2.70;;
3841;SDS011;1936;47.074;15.336;2022-09-09T05:37:31;3.97;;;3.60;;
3841;SDS011;1936;47.074;15.336;2022-09-09T05:39:34;3.70;;;3.40;;
3841;SDS011;1936;47.074;15.336;2022-09-09T05:41:39;6.50;;;2.80;;
3841;SDS011;1936;47.074;15.336;2022-09-09T05:43:42;3.60;;;3.30;;
3841;SDS011;1936;47.074;15.336;2022-09-09T05:45:47;5.60;;;3.17;;
3841;SDS011;1936;47.074;15.336;2022-09-09T05:47:52;3.97;;;3.13;;
3841;SDS011;1936;47.074;15.336;2022-09-09T05:49:56;4.67;;;3.40;;
3841;SDS011;1936;47.074;15.336;2022-09-09T05:51:59;3.13;;;2.60;;
3841;SDS011;1936;47.074;15.336;2022-09-09T05:54:05;3.90;;;2.53;;
3841;SDS011;1936;47.074;15.336;2022-09-09T05:56:09;3.63;;;2.40;;
3841;SDS011;1936;47.074;15.336;2022-09-09T05:58:13;3.30;;;2.83;;
3841;SDS011;1936;47.074;15.336;2022-09-09T06:00:18;4.13;;;3.00;;
3841;SDS011;1936;47.074;15.336;2022-09-09T06:02:23;4.33;;;2.67;;
3841;SDS011;1936;47.074;15.336;2022-09-09T06:04:28;4.67;;;3.00;;
3841;SDS011;1936;47.074;15.336;2022-09-09T06:06:32;3.63;;;3.33;;
3841;SDS011;1936;47.074;15.336;2022-09-09T06:08:39;4.50;;;3.10;;
3841;SDS011;1936;47.074;15.336;2022-09-09T06:10:43;5.73;;;2.93;;
3841;SDS011;1936;47.074;15.336;2022-09-09T06:12:47;3.47;;;2.73;;
3841;SDS011;1936;47.074;15.336;2022-09-09T06:14:50;7.30;;;2.77;;
3841;SDS011;1936;47.074;15.336;2022-09-09T06:16:54;4.63;;;2.87;;
3841;SDS011;1936;47.074;15.336;2022-09-09T06:18:58;3.37;;;3.07;;
3841;SDS011;1936;47.074;15.336;2022-09-09T06:21:04;3.83;;;2.90;;
3841;SDS011;1936;47.074;15.336;2022-09-09T06:23:09;6.10;;;3.77;;
3841;SDS011;1936;47.074;15.336;2022-09-09T06:25:13;3.20;;;3.00;;
3841;SDS011;1936;47.074;15.336;2022-09-09T06:27:17;5.63;;;3.10;;
3841;SDS011;1936;47.074;15.336;2022-09-09T06:29:20;3.47;;;3.17;;
3841;SDS011;1936;47.074;15.336;2022-09-09T06:31:25;3.90;;;2.57;;
3841;SDS011;1936;47.074;15.336;2022-09-09T06:33:32;4.10;;;3.00;;
3841;SDS011;1936;47.074;15.336;2022-09-09T06:35:37;4.67;;;3.13;;
3841;SDS011;1936;47.074;15.336;2022-09-09T06:37:45;3.80;;;3.50;;
3841;SDS011;1936;47.074;15.336;2022-09-09T06:39:50;9.10;;;4.03;;
3841;SDS011;1936;47.074;15.336;2022-09-09T06:41:53;8.87;;;2.87;;
3841;SDS011;1936;47.074;15.336;2022-09-09T06:44:00;4.17;;;3.63;;
3841;SDS011;1936;47.074;15.336;2022-09-09T06:46:05;3.80;;;3.07;;
3841;SDS011;1936;47.074;15.336;2022-09-09T06:48:09;4.40;;;2.90;;
3841;SDS011;1936;47.074;15.336;2022-09-09T06:50:13;4.10;;;3.37;;
3841;SDS011;1936;47.074;15.336;2022-09-09T06:52:16;4.57;;;2.93;;
3841;SDS011;1936;47.074;15.336;2022-09-09T06:54:21;5.90;;;2.53;;
3841;SDS011;1936;47.074;15.336;2022-09-09T06:56:25;2.97;;;2.30;;
3841;SDS011;1936;47.074;15.336;2022-09-09T06:58:31;3.80;;;2.73;;
3841;SDS011;1936;47.074;15.336;2022-09-09T07:00:36;3.00;;;2.10;;
3841;SDS011;1936;47.074;15.336;2022-09-09T07:02:40;3.73;;;2.80;;
3841;SDS011;1936;47.074;15.336;2022-09-09T07:04:43;2.50;;;2.30;;
3841;SDS011;1936;47.074;15.336;2022-09-09T07:06:47;8.10;;;2.43;;
3841;SDS011;1936;47.074;15.336;2022-09-09T07:08:50;5.23;;;2.70;;
3841;SDS011;1936;47.074;15.336;2022-09-09T07:11:02;5.23;;;2.57;;
3841;SDS011;1936;47.074;15.336;2022-09-09T07:13:12;3.30;;;2.60;;
3841;SDS011;1936;47.074;15.336;2022-09-09T07:15:16;3.00;;;2.50;;
3841;SDS011;1936;47.074;15.336;2022-09-09T07:17:21;2.43;;;2.23;;
3841;SDS011;1936;47.074;15.336;2022-09-09T07:19:24;4.87;;;2.93;;
3841;SDS011;1936;47.074;15.336;2022-09-09T07:21:28;5.20;;;2.87;;
3841;SDS011;1936;47.074;15.336;2022-09-09T07:23:32;3.90;;;3.10;;
3841;SDS011;1936;47.074;15.336;2022-09-09T07:25:37;3.23;;;2.80;;
3841;SDS011;1936;47.074;15.336;2022-09-09T07:27:41;5.63;;;2.73;;
3841;SDS011;1936;47.074;15.336;2022-09-09T07:29:44;13.37;;;3.07;;
3841;SDS011;1936;47.074;15.336;2022-09-09T07:31:48;3.10;;;2.70;;
3841;SDS011;1936;47.074;15.336;2022-09-09T07:33:51;2.60;;;2.40;;
3841;SDS011;1936;47.074;15.336;2022-09-09T07:36:01;3.40;;;2.53;;
3841;SDS011;1936;47.074;15.336;2022-09-09T07:38:07;6.20;;;2.77;;
3841;SDS011;1936;47.074;15.336;2022-09-09T07:40:11;2.60;;;2.40;;
3841;SDS011;1936;47.074;15.336;2022-09-09T07:42:14;4.23;;;2.40;;
3841;SDS011;1936;47.074;15.336;2022-09-09T07:44:19;4.80;;;3.13;;
3841;SDS011;1936;47.074;15.336;2022-09-09T07:46:25;2.70;;;2.50;;
3841;SDS011;1936;47.074;15.336;2022-09-09T07:48:29;3.33;;;2.33;;
3841;SDS011;1936;47.074;15.336;2022-09-09T07:50:32;2.70;;;2.50;;
3841;SDS011;1936;47.074;15.336;2022-09-09T07:52:36;4.43;;;2.80;;
3841;SDS011;1936;47.074;15.336;2022-09-09T07:54:39;4.40;;;2.90;;
3841;SDS011;1936;47.074;15.336;2022-09-09T07:56:43;4.10;;;3.13;;
3841;SDS011;1936;47.074;15.336;2022-09-09T07:58:46;4.40;;;2.73;;
3841;SDS011;1936;47.074;15.336;2022-09-09T08:00:53;8.17;;;2.93;;
3841;SDS011;1936;47.074;15.336;2022-09-09T08:02:56;5.23;;;3.53;;
3841;SDS011;1936;47.074;15.336;2022-09-09T08:05:02;5.33;;;3.20;;
3841;SDS011;1936;47.074;15.336;2022-09-09T08:07:07;6.77;;;4.70;;
3841;SDS011;1936;47.074;15.336;2022-09-09T08:09:12;8.87;;;6.57;;
3841;SDS011;1936;47.074;15.336;2022-09-09T08:11:16;5.40;;;4.37;;
3841;SDS011;1936;47.074;15.336;2022-09-09T08:13:19;4.10;;;3.70;;
3841;SDS011;1936;47.074;15.336;2022-09-09T08:15:22;4.33;;;2.90;;
3841;SDS011;1936;47.074;15.336;2022-09-09T08:17:27;3.23;;;2.87;;
3841;SDS011;1936;47.074;15.336;2022-09-09T08:19:31;2.67;;;2.40;;
3841;SDS011;1936;47.074;15.336;2022-09-09T08:21:35;7.93;;;3.33;;
3841;SDS011;1936;47.074;15.336;2022-09-09T08:23:41;3.90;;;2.57;;
3841;SDS011;1936;47.074;15.336;2022-09-09T08:25:46;4.00;;;2.10;;
3841;SDS011;1936;47.074;15.336;2022-09-09T08:27:52;2.20;;;2.03;;
3841;SDS011;1936;47.074;15.336;2022-09-09T08:29:57;2.10;;;1.90;;
3841;SDS011;1936;47.074;15.336;2022-09-09T08:32:00;8.23;;;2.20;;
3841;SDS011;1936;47.074;15.336;2022-09-09T08:34:05;2.67;;;2.47;;
3841;SDS011;1936;47.074;15.336;2022-09-09T08:36:10;2.67;;;2.47;;
3841;SDS011;1936;47.074;15.336;2022-09-09T08:38:16;4.03;;;2.33;;
3841;SDS011;1936;47.074;15.336;2022-09-09T08:40:21;2.83;;;1.93;;
3841;SDS011;1936;47.074;15.336;2022-09-09T08:42:31;3.00;;;2.37;;
3841;SDS011;1936;47.074;15.336;2022-09-09T08:44:48;3.30;;;2.40;;
3841;SDS011;1936;47.074;15.336;2022-09-09T08:47:00;4.07;;;2.97;;
3841;SDS011;1936;47.074;15.336;2022-09-09T08:49:14;2.83;;;2.63;;
3841;SDS011;1936;47.074;15.336;2022-09-09T08:51:25;3.03;;;2.73;;
3841;SDS011;1936;47.074;15.336;2022-09-09T08:53:37;1.70;;;1.60;;
3841;SDS011;1936;47.074;15.336;2022-09-09T08:55:45;4.10;;;2.23;;
3841;SDS011;1936;47.074;15.336;2022-09-09T08:57:51;5.00;;;2.67;;
3841;SDS011;1936;47.074;15.336;2022-09-09T08:59:56;2.70;;;2.33;;
3841;SDS011;1936;47.074;15.336;2022-09-09T09:02:03;2.10;;;1.90;;
3841;SDS011;1936;47.074;15.336;2022-09-09T09:04:26;2.97;;;2.40;;
3841;SDS011;1936;47.074;15.336;2022-09-09T09:06:43;2.80;;;2.33;;
3841;SDS011;1936;47.074;15.336;2022-09-09T09:08:57;3.10;;;2.50;;
3841;SDS011;1936;47.074;15.336;2022-09-09T09:11:03;4.17;;;2.07;;
3841;SDS011;1936;47.074;15.336;2022-09-09T09:13:10;3.20;;;2.70;;
3841;SDS011;1936;47.074;15.336;2022-09-09T09:15:16;3.93;;;2.37;;
3841;SDS011;1936;47.074;15.336;2022-09-09T09:17:24;2.53;;;2.30;;
3841;SDS011;1936;47.074;15.336;2022-09-09T09:19:33;2.47;;;2.27;;
3841;SDS011;1936;47.074;15.336;2022-09-09T09:21:41;3.90;;;2.67;;
3841;SDS011;1936;47.074;15.336;2022-09-09T09:23:48;2.80;;;2.00;;
3841;SDS011;1936;47.074;15.336;2022-09-09T09:25:58;1.97;;;1.87;;
3841;SDS011;1936;47.074;15.336;2022-09-09T09:28:03;5.53;;;2.43;;
3841;SDS011;1936;47.074;15.336;2022-09-09T09:30:19;3.40;;;2.40;;
3841;SDS011;1936;47.074;15.336;2022-09-09T09:32:30;3.40;;;2.37;;
3841;SDS011;1936;47.074;15.336;2022-09-09T09:34:38;3.67;;;2.03;;
3841;SDS011;1936;47.074;15.336;2022-09-09T09:36:42;4.20;;;2.50;;
3841;SDS011;1936;47.074;15.336;2022-09-09T09:38:51;2.37;;;2.03;;
3841;SDS011;1936;47.074;15.336;2022-09-09T09:41:17;2.87;;;2.20;;
3841;SDS011;1936;47.074;15.336;2022-09-09T09:43:32;2.87;;;2.67;;
3841;SDS011;1936;47.074;15.336;2022-09-09T09:45:41;1.73;;;1.60;;
3841;SDS011;1936;47.074;15.336;2022-09-09T09:48:02;3.80;;;1.67;;
3841;SDS011;1936;47.074;15.336;2022-09-09T09:50:17;3.10;;;1.97;;
3841;SDS011;1936;47.074;15.336;2022-09-09T09:52:22;2.80;;;1.53;;
3841;SDS011;1936;47.074;15.336;2022-09-09T09:54:27;3.37;;;1.77;;
3841;SDS011;1936;47.074;15.336;2022-09-09T09:56:33;2.83;;;0.90;;
3841;SDS011;1936;47.074;15.336;2022-09-09T09:58:38;2.70;;;1.40;;
3841;SDS011;1936;47.074;15.336;2022-09-09T10:00:55;1.00;;;0.90;;
3841;SDS011;1936;47.074;15.336;2022-09-09T10:03:00;1.20;;;0.90;;
3841;SDS011;1936;47.074;15.336;2022-09-09T10:05:05;1.03;;;0.93;;
3841;SDS011;1936;47.074;15.336;2022-09-09T10:07:18;1.40;;;0.73;;
3841;SDS011;1936;47.074;15.336;2022-09-09T10:09:24;2.43;;;0.80;;
3841;SDS011;1936;47.074;15.336;2022-09-09T10:11:32;2.40;;;0.77;;
3841;SDS011;1936;47.074;15.336;2022-09-09T10:13:46;1.40;;;0.77;;
3841;SDS011;1936;47.074;15.336;2022-09-09T10:16:00;1.40;;;0.73;;
3841;SDS011;1936;47.074;15.336;2022-09-09T10:18:18;0.90;;;0.50;;
3841;SDS011;1936;47.074;15.336;2022-09-09T10:20:38;1.10;;;0.73;;
3841;SDS011;1936;47.074;15.336;2022-09-09T10:22:51;1.87;;;1.10;;
3841;SDS011;1936;47.074;15.336;2022-09-09T10:25:01;1.10;;;0.60;;
3841;SDS011;1936;47.074;15.336;2022-09-09T10:27:10;1.53;;;0.83;;
3841;SDS011;1936;47.074;15.336;2022-09-09T10:29:26;1.43;;;0.80;;
3841;SDS011;1936;47.074;15.336;2022-09-09T10:31:43;2.60;;;0.87;;
3841;SDS011;1936;47.074;15.336;2022-09-09T10:33:56;1.20;;;0.73;;
3841;SDS011;1936;47.074;15.336;2022-09-09T10:36:10;1.17;;;0.93;;
3841;SDS011;1936;47.074;15.336;2022-09-09T10:38:18;3.33;;;0.83;;
3841;SDS011;1936;47.074;15.336;2022-09-09T10:40:30;1.27;;;0.90;;
3841;SDS011;1936;47.074;15.336;2022-09-09T10:42:35;1.20;;;1.00;;
3841;SDS011;1936;47.074;15.336;2022-09-09T10:44:42;1.80;;;1.00;;
3841;SDS011;1936;47.074;15.336;2022-09-09T10:49:46;0.90;;;0.80;;
3841;SDS011;1936;47.074;15.336;2022-09-09T10:52:04;1.73;;;0.80;;
3841;SDS011;1936;47.074;15.336;2022-09-09T10:54:16;1.30;;;0.80;;
3841;SDS011;1936;47.074;15.336;2022-09-09T10:56:34;0.90;;;0.77;;
3841;SDS011;1936;47.074;15.336;2022-09-09T10:58:39;2.90;;;1.00;;
3841;SDS011;1936;47.074;15.336;2022-09-09T11:00:47;1.60;;;0.70;;
3841;SDS011;1936;47.074;15.336;2022-09-09T11:02:59;2.60;;;0.97;;
3841;SDS011;1936;47.074;15.336;2022-09-09T11:05:05;1.50;;;1.00;;
3841;SDS011;1936;47.074;15.336;2022-09-09T11:07:14;7.37;;;1.20;;
3841;SDS011;1936;47.074;15.336;2022-09-09T11:09:27;2.90;;;0.90;;
3841;SDS011;1936;47.074;15.336;2022-09-09T11:11:36;2.37;;;1.00;;
3841;SDS011;1936;47.074;15.336;2022-09-09T11:13:45;1.50;;;0.93;;
3841;SDS011;1936;47.074;15.336;2022-09-09T11:15:53;2.40;;;0.80;;
3841;SDS011;1936;47.074;15.336;2022-09-09T11:18:01;1.60;;;1.03;;
3841;SDS011;1936;47.074;15.336;2022-09-09T11:20:10;1.30;;;1.20;;
3841;SDS011;1936;47.074;15.336;2022-09-09T11:22:17;1.57;;;0.77;;
3841;SDS011;1936;47.074;15.336;2022-09-09T11:24:28;1.37;;;1.00;;
3841;SDS011;1936;47.074;15.336;2022-09-09T11:26:38;3.80;;;0.80;;
3841;SDS011;1936;47.074;15.336;2022-09-09T11:28:49;1.57;;;1.10;;
3841;SDS011;1936;47.074;15.336;2022-09-09T11:31:09;1.00;;;0.80;;
3841;SDS011;1936;47.074;15.336;2022-09-09T11:37:03;3.23;;;2.00;;
3841;SDS011;1936;47.074;15.336;2022-09-09T11:39:26;2.73;;;2.40;;
3841;SDS011;1936;47.074;15.336;2022-09-09T11:42:12;3.07;;;2.17;;
3841;SDS011;1936;47.074;15.336;2022-09-09T11:44:23;2.43;;;2.23;;
3841;SDS011;1936;47.074;15.336;2022-09-09T11:46:32;2.30;;;1.97;;
3841;SDS011;1936;47.074;15.336;2022-09-09T11:48:40;4.27;;;2.33;;
3841;SDS011;1936;47.074;15.336;2022-09-09T11:50:47;3.33;;;2.17;;
3841;SDS011;1936;47.074;15.336;2022-09-09T11:55:25;3.73;;;2.07;;
3841;SDS011;1936;47.074;15.336;2022-09-09T11:57:32;1.97;;;1.80;;
3841;SDS011;1936;47.074;15.336;2022-09-09T11:59:37;2.10;;;1.70;;
3841;SDS011;1936;47.074;15.336;2022-09-09T12:01:41;1.83;;;1.73;;
3841;SDS011;1936;47.074;15.336;2022-09-09T12:03:48;3.13;;;1.77;;
3841;SDS011;1936;47.074;15.336;2022-09-09T12:05:54;9.60;;;2.27;;
3841;SDS011;1936;47.074;15.336;2022-09-09T12:07:59;3.70;;;1.67;;
3841;SDS011;1936;47.074;15.336;2022-09-09T12:10:05;1.90;;;1.70;;
3841;SDS011;1936;47.074;15.336;2022-09-09T12:12:25;1.90;;;1.50;;
3841;SDS011;1936;47.074;15.336;2022-09-09T12:14:36;2.73;;;2.43;;
3841;SDS011;1936;47.074;15.336;2022-09-09T12:16:40;2.33;;;2.13;;
3841;SDS011;1936;47.074;15.336;2022-09-09T12:18:44;3.03;;;2.17;;
3841;SDS011;1936;47.074;15.336;2022-09-09T12:20:51;3.57;;;2.00;;
3841;SDS011;1936;47.074;15.336;2022-09-09T12:23:03;2.60;;;2.33;;
3841;SDS011;1936;47.074;15.336;2022-09-09T12:25:20;2.70;;;1.97;;
3841;SDS011;1936;47.074;15.336;2022-09-09T12:27:31;4.20;;;2.23;;
3841;SDS011;1936;47.074;15.336;2022-09-09T12:29:44;3.30;;;2.17;;
3841;SDS011;1936;47.074;15.336;2022-09-09T12:31:56;3.10;;;2.80;;
3841;SDS011;1936;47.074;15.336;2022-09-09T12:34:11;2.50;;;1.90;;
3841;SDS011;1936;47.074;15.336;2022-09-09T12:36:18;2.80;;;2.20;;
3841;SDS011;1936;47.074;15.336;2022-09-09T12:38:26;4.27;;;2.40;;
3841;SDS011;1936;47.074;15.336;2022-09-09T12:40:34;2.70;;;2.37;;
3841;SDS011;1936;47.074;15.336;2022-09-09T12:42:39;2.73;;;2.13;;
3841;SDS011;1936;47.074;15.336;2022-09-09T12:44:51;4.70;;;2.00;;
3841;SDS011;1936;47.074;15.336;2022-09-09T12:46:55;3.00;;;1.50;;
3841;SDS011;1936;47.074;15.336;2022-09-09T12:49:02;4.33;;;1.77;;
3841;SDS011;1936;47.074;15.336;2022-09-09T12:51:16;4.60;;;2.10;;
3841;SDS011;1936;47.074;15.336;2022-09-09T12:53:22;1.93;;;1.80;;
3841;SDS011;1936;47.074;15.336;2022-09-09T12:55:28;5.83;;;2.30;;
3841;SDS011;1936;47.074;15.336;2022-09-09T12:57:36;2.60;;;2.10;;
3841;SDS011;1936;47.074;15.336;2022-09-09T12:59:42;2.73;;;2.03;;
3841;SDS011;1936;47.074;15.336;2022-09-09T13:01:54;1.97;;;1.70;;
3841;SDS011;1936;47.074;15.336;2022-09-09T13:03:58;4.13;;;2.00;;
3841;SDS011;1936;47.074;15.336;2022-09-09T13:06:10;2.23;;;2.03;;
3841;SDS011;1936;47.074;15.336;2022-09-09T13:08:15;1.97;;;1.37;;
3841;SDS011;1936;47.074;15.336;2022-09-09T13:10:23;3.83;;;2.00;;